sensor_id;sensor_type;location;lat;lon;timestamp;noise_LAeq;noise_LA_min;noise_LA_max;noise_LA01;noise_LA95
71034;Laerm;58847;52.378;4.740;2023-02-23T00:00:05;49.95;48.36;51.58;;
71034;Laerm;58847;52.378;4.740;2023-02-23T00:00:30;49.85;48.43;51.74;;
71034;Laerm;58847;52.378;4.740;2023-02-23T00:00:41;49.89;48.54;51.61;;
71034;Laerm;58847;52.378;4.740;2023-02-23T00:00:53;49.91;48.30;51.62;;
71034;Laerm;58847;52.378;4.740;2023-02-23T00:01:12;49.98;48.74;51.32;;
71034;Laerm;58847;52.378;4.740;2023-02-23T00:01:24;49.99;48.44;52.23;;
71034;Laerm;58847;52.378;4.740;2023-02-23T00:01:35;49.94;48.85;51.73;;
71034;Laerm;58847;52.378;4.740;2023-02-23T00:01:46;50.07;48.76;51.46;;
71034;Laerm;58847;52.378;4.740;2023-02-23T00:01:56;49.98;49.00;51.36;;
71034;Laerm;58847;52.378;4.740;2023-02-23T00:02:07;49.75;48.24;51.36;;
71034;Laerm;58847;52.378;4.740;2023-02-23T00:02:17;49.72;48.29;51.55;;
71034;Laerm;58847;52.378;4.740;2023-02-23T00:02:27;49.66;48.40;51.64;;
71034;Laerm;58847;52.378;4.740;2023-02-23T00:02:37;49.68;48.43;52.48;;
71034;Laerm;58847;52.378;4.740;2023-02-23T00:02:48;49.55;48.30;52.58;;
71034;Laerm;58847;52.378;4.740;2023-02-23T00:02:59;49.51;48.25;50.88;;
71034;Laerm;58847;52.378;4.740;2023-02-23T00:03:10;49.64;48.29;51.43;;
71034;Laerm;58847;52.378;4.740;2023-02-23T00:03:20;49.56;48.46;51.10;;
71034;Laerm;58847;52.378;4.740;2023-02-23T00:03:31;49.59;48.46;52.01;;
71034;Laerm;58847;52.378;4.740;2023-02-23T00:03:41;49.52;48.39;51.37;;
71034;Laerm;58847;52.378;4.740;2023-02-23T00:03:53;49.51;47.87;51.39;;
71034;Laerm;58847;52.378;4.740;2023-02-23T00:04:04;49.55;48.35;51.20;;
71034;Laerm;58847;52.378;4.740;2023-02-23T00:04:14;49.55;48.24;51.41;;
71034;Laerm;58847;52.378;4.740;2023-02-23T00:04:24;49.47;48.18;50.78;;
71034;Laerm;58847;52.378;4.740;2023-02-23T00:04:35;49.51;47.98;51.12;;
71034;Laerm;58847;52.378;4.740;2023-02-23T00:04:46;49.52;48.07;51.88;;
71034;Laerm;58847;52.378;4.740;2023-02-23T00:04:57;49.52;47.76;51.29;;
71034;Laerm;58847;52.378;4.740;2023-02-23T00:05:07;49.61;47.96;51.59;;
71034;Laerm;58847;52.378;4.740;2023-02-23T00:05:17;49.48;48.24;51.54;;
71034;Laerm;58847;52.378;4.740;2023-02-23T00:05:29;49.57;48.30;51.57;;
71034;Laerm;58847;52.378;4.740;2023-02-23T00:05:40;49.51;48.27;51.16;;
71034;Laerm;58847;52.378;4.740;2023-02-23T00:05:50;49.54;48.35;50.94;;
71034;Laerm;58847;52.378;4.740;2023-02-23T00:06:01;49.51;48.13;50.80;;
71034;Laerm;58847;52.378;4.740;2023-02-23T00:06:12;49.49;47.74;50.64;;
71034;Laerm;58847;52.378;4.740;2023-02-23T00:06:23;49.55;48.47;50.98;;
71034;Laerm;58847;52.378;4.740;2023-02-23T00:06:34;49.60;48.14;51.59;;
71034;Laerm;58847;52.378;4.740;2023-02-23T00:06:45;49.54;48.27;51.23;;
71034;Laerm;58847;52.378;4.740;2023-02-23T00:06:55;49.50;48.21;51.32;;
71034;Laerm;58847;52.378;4.740;2023-02-23T00:07:05;49.58;48.23;51.16;;
71034;Laerm;58847;52.378;4.740;2023-02-23T00:07:15;49.50;48.30;50.80;;
71034;Laerm;58847;52.378;4.740;2023-02-23T00:07:28;49.51;47.89;51.05;;
71034;Laerm;58847;52.378;4.740;2023-02-23T00:07:40;49.40;48.04;50.95;;
71034;Laerm;58847;52.378;4.740;2023-02-23T00:07:52;49.57;48.30;51.16;;
71034;Laerm;58847;52.378;4.740;2023-02-23T00:08:03;49.56;48.16;51.10;;
71034;Laerm;58847;52.378;4.740;2023-02-23T00:08:14;49.48;48.08;50.58;;
71034;Laerm;58847;52.378;4.740;2023-02-23T00:08:24;49.33;48.01;51.10;;
71034;Laerm;58847;52.378;4.740;2023-02-23T00:08:37;49.37;48.03;50.78;;
71034;Laerm;58847;52.378;4.740;2023-02-23T00:08:48;49.32;48.09;50.76;;
71034;Laerm;58847;52.378;4.740;2023-02-23T00:08:58;49.28;48.00;50.62;;
71034;Laerm;58847;52.378;4.740;2023-02-23T00:09:10;49.33;47.70;50.78;;
71034;Laerm;58847;52.378;4.740;2023-02-23T00:09:32;49.42;47.96;51.58;;
71034;Laerm;58847;52.378;4.740;2023-02-23T00:09:45;49.41;48.11;51.08;;
71034;Laerm;58847;52.378;4.740;2023-02-23T00:09:56;49.51;47.96;51.46;;
71034;Laerm;58847;52.378;4.740;2023-02-23T00:10:06;49.58;48.19;51.13;;
71034;Laerm;58847;52.378;4.740;2023-02-23T00:10:21;49.45;48.26;50.94;;
71034;Laerm;58847;52.378;4.740;2023-02-23T00:10:34;49.60;48.23;51.88;;
71034;Laerm;58847;52.378;4.740;2023-02-23T00:10:44;49.44;48.06;51.89;;
71034;Laerm;58847;52.378;4.740;2023-02-23T00:10:54;49.44;47.95;50.98;;
71034;Laerm;58847;52.378;4.740;2023-02-23T00:11:08;49.47;48.22;50.75;;
71034;Laerm;58847;52.378;4.740;2023-02-23T00:11:20;49.81;48.42;51.54;;
71034;Laerm;58847;52.378;4.740;2023-02-23T00:11:31;49.63;48.25;51.35;;
71034;Laerm;58847;52.378;4.740;2023-02-23T00:11:42;49.47;48.18;51.51;;
71034;Laerm;58847;52.378;4.740;2023-02-23T00:11:53;49.41;47.84;50.75;;
71034;Laerm;58847;52.378;4.740;2023-02-23T00:12:05;49.35;48.02;50.81;;
71034;Laerm;58847;52.378;4.740;2023-02-23T00:12:18;49.42;47.71;50.77;;
71034;Laerm;58847;52.378;4.740;2023-02-23T00:12:29;49.43;48.13;51.08;;
71034;Laerm;58847;52.378;4.740;2023-02-23T00:12:40;49.41;48.15;50.88;;
71034;Laerm;58847;52.378;4.740;2023-02-23T00:12:50;49.30;47.94;50.98;;
71034;Laerm;58847;52.378;4.740;2023-02-23T00:13:01;49.41;48.04;50.73;;
71034;Laerm;58847;52.378;4.740;2023-02-23T00:13:11;49.33;47.86;51.41;;
71034;Laerm;58847;52.378;4.740;2023-02-23T00:13:21;49.38;47.46;51.22;;
71034;Laerm;58847;52.378;4.740;2023-02-23T00:13:32;49.37;48.04;50.76;;
71034;Laerm;58847;52.378;4.740;2023-02-23T00:13:47;49.34;48.05;51.06;;
71034;Laerm;58847;52.378;4.740;2023-02-23T00:13:59;49.36;47.90;51.02;;
71034;Laerm;58847;52.378;4.740;2023-02-23T00:14:10;49.35;48.16;51.26;;
71034;Laerm;58847;52.378;4.740;2023-02-23T00:14:21;49.40;47.99;51.03;;
71034;Laerm;58847;52.378;4.740;2023-02-23T00:14:33;49.34;47.98;51.15;;
71034;Laerm;58847;52.378;4.740;2023-02-23T00:14:44;49.36;48.19;50.61;;
71034;Laerm;58847;52.378;4.740;2023-02-23T00:14:54;49.26;47.99;50.91;;
71034;Laerm;58847;52.378;4.740;2023-02-23T00:15:05;49.46;47.92;51.26;;
71034;Laerm;58847;52.378;4.740;2023-02-23T00:15:16;49.43;48.30;51.03;;
71034;Laerm;58847;52.378;4.740;2023-02-23T00:15:26;49.39;47.93;50.64;;
71034;Laerm;58847;52.378;4.740;2023-02-23T00:15:38;49.32;48.25;50.58;;
71034;Laerm;58847;52.378;4.740;2023-02-23T00:15:49;49.38;48.11;50.80;;
71034;Laerm;58847;52.378;4.740;2023-02-23T00:16:02;49.46;47.82;50.79;;
71034;Laerm;58847;52.378;4.740;2023-02-23T00:16:13;49.35;48.17;51.45;;
71034;Laerm;58847;52.378;4.740;2023-02-23T00:16:24;49.29;47.87;50.79;;
71034;Laerm;58847;52.378;4.740;2023-02-23T00:16:35;49.34;47.99;50.65;;
71034;Laerm;58847;52.378;4.740;2023-02-23T00:16:46;49.56;47.96;50.93;;
71034;Laerm;58847;52.378;4.740;2023-02-23T00:16:56;49.41;47.96;51.04;;
71034;Laerm;58847;52.378;4.740;2023-02-23T00:17:08;49.49;48.18;51.37;;
71034;Laerm;58847;52.378;4.740;2023-02-23T00:17:23;50.38;49.17;51.99;;
71034;Laerm;58847;52.378;4.740;2023-02-23T00:17:33;50.32;49.29;52.49;;
71034;Laerm;58847;52.378;4.740;2023-02-23T00:17:45;50.39;49.00;52.42;;
71034;Laerm;58847;52.378;4.740;2023-02-23T00:17:57;50.27;48.98;51.72;;
71034;Laerm;58847;52.378;4.740;2023-02-23T00:18:07;50.28;49.11;51.34;;
71034;Laerm;58847;52.378;4.740;2023-02-23T00:18:18;50.36;49.05;52.16;;
71034;Laerm;58847;52.378;4.740;2023-02-23T00:18:29;50.06;48.89;51.30;;
71034;Laerm;58847;52.378;4.740;2023-02-23T00:18:50;50.10;48.86;51.78;;
71034;Laerm;58847;52.378;4.740;2023-02-23T00:19:02;50.50;48.89;51.98;;
71034;Laerm;58847;52.378;4.740;2023-02-23T00:19:16;50.35;49.14;52.03;;
71034;Laerm;58847;52.378;4.740;2023-02-23T00:19:26;50.45;49.23;52.26;;
71034;Laerm;58847;52.378;4.740;2023-02-23T00:19:37;50.61;49.18;52.12;;
71034;Laerm;58847;52.378;4.740;2023-02-23T00:19:47;50.77;49.62;52.43;;
71034;Laerm;58847;52.378;4.740;2023-02-23T00:19:58;50.69;49.44;52.40;;
71034;Laerm;58847;52.378;4.740;2023-02-23T00:20:09;50.62;49.49;52.13;;
71034;Laerm;58847;52.378;4.740;2023-02-23T00:20:20;50.64;49.33;51.86;;
71034;Laerm;58847;52.378;4.740;2023-02-23T00:20:35;50.67;49.52;52.01;;
71034;Laerm;58847;52.378;4.740;2023-02-23T00:20:53;50.89;49.89;52.46;;
71034;Laerm;58847;52.378;4.740;2023-02-23T00:21:06;50.58;49.15;52.11;;
71034;Laerm;58847;52.378;4.740;2023-02-23T00:21:18;50.32;49.21;51.47;;
71034;Laerm;58847;52.378;4.740;2023-02-23T00:21:29;50.35;49.20;51.57;;
71034;Laerm;58847;52.378;4.740;2023-02-23T00:21:40;50.32;49.37;51.77;;
71034;Laerm;58847;52.378;4.740;2023-02-23T00:21:50;50.43;49.38;52.07;;
71034;Laerm;58847;52.378;4.740;2023-02-23T00:22:01;50.25;49.13;51.72;;
71034;Laerm;58847;52.378;4.740;2023-02-23T00:22:11;50.35;49.00;51.37;;
71034;Laerm;58847;52.378;4.740;2023-02-23T00:22:23;50.28;49.12;51.75;;
71034;Laerm;58847;52.378;4.740;2023-02-23T00:22:33;50.26;49.18;51.61;;
71034;Laerm;58847;52.378;4.740;2023-02-23T00:22:43;50.31;49.03;51.63;;
71034;Laerm;58847;52.378;4.740;2023-02-23T00:22:54;49.94;48.40;52.24;;
71034;Laerm;58847;52.378;4.740;2023-02-23T00:23:04;49.26;47.89;51.26;;
71034;Laerm;58847;52.378;4.740;2023-02-23T00:23:15;49.32;48.11;51.16;;
71034;Laerm;58847;52.378;4.740;2023-02-23T00:23:25;49.59;48.35;51.11;;
71034;Laerm;58847;52.378;4.740;2023-02-23T00:23:36;49.13;47.82;50.54;;
71034;Laerm;58847;52.378;4.740;2023-02-23T00:23:51;49.32;47.82;50.80;;
71034;Laerm;58847;52.378;4.740;2023-02-23T00:24:05;49.35;48.12;51.41;;
71034;Laerm;58847;52.378;4.740;2023-02-23T00:24:17;49.33;48.11;51.30;;
71034;Laerm;58847;52.378;4.740;2023-02-23T00:24:29;49.46;47.87;51.52;;
71034;Laerm;58847;52.378;4.740;2023-02-23T00:24:39;49.38;48.29;50.78;;
71034;Laerm;58847;52.378;4.740;2023-02-23T00:24:51;49.56;48.21;51.02;;
71034;Laerm;58847;52.378;4.740;2023-02-23T00:25:01;49.64;48.69;51.43;;
71034;Laerm;58847;52.378;4.740;2023-02-23T00:25:16;49.48;48.17;51.17;;
71034;Laerm;58847;52.378;4.740;2023-02-23T00:25:27;49.36;48.11;51.08;;
71034;Laerm;58847;52.378;4.740;2023-02-23T00:25:40;49.50;48.30;51.58;;
71034;Laerm;58847;52.378;4.740;2023-02-23T00:25:54;49.64;48.37;51.30;;
71034;Laerm;58847;52.378;4.740;2023-02-23T00:26:05;49.89;48.61;51.45;;
71034;Laerm;58847;52.378;4.740;2023-02-23T00:26:15;49.58;48.32;50.95;;
71034;Laerm;58847;52.378;4.740;2023-02-23T00:26:26;49.59;48.43;51.34;;
71034;Laerm;58847;52.378;4.740;2023-02-23T00:26:40;49.82;48.39;51.53;;
71034;Laerm;58847;52.378;4.740;2023-02-23T00:26:54;49.72;48.24;51.55;;
71034;Laerm;58847;52.378;4.740;2023-02-23T00:27:04;49.52;48.17;51.40;;
71034;Laerm;58847;52.378;4.740;2023-02-23T00:27:15;49.70;48.36;51.29;;
71034;Laerm;58847;52.378;4.740;2023-02-23T00:27:30;49.50;48.12;51.28;;
71034;Laerm;58847;52.378;4.740;2023-02-23T00:27:40;49.40;48.23;51.01;;
71034;Laerm;58847;52.378;4.740;2023-02-23T00:27:54;49.85;48.39;52.03;;
71034;Laerm;58847;52.378;4.740;2023-02-23T00:28:05;49.45;47.85;50.71;;
71034;Laerm;58847;52.378;4.740;2023-02-23T00:28:16;49.22;48.02;50.39;;
71034;Laerm;58847;52.378;4.740;2023-02-23T00:28:26;49.41;48.03;50.80;;
71034;Laerm;58847;52.378;4.740;2023-02-23T00:28:36;49.35;48.41;50.83;;
71034;Laerm;58847;52.378;4.740;2023-02-23T00:28:47;49.50;48.14;50.87;;
71034;Laerm;58847;52.378;4.740;2023-02-23T00:28:58;49.37;48.23;50.85;;
71034;Laerm;58847;52.378;4.740;2023-02-23T00:29:12;49.30;47.83;50.76;;
71034;Laerm;58847;52.378;4.740;2023-02-23T00:29:26;49.34;47.86;51.11;;
71034;Laerm;58847;52.378;4.740;2023-02-23T00:29:36;49.11;47.83;50.13;;
71034;Laerm;58847;52.378;4.740;2023-02-23T00:29:49;49.26;48.19;50.75;;
71034;Laerm;58847;52.378;4.740;2023-02-23T00:30:00;49.33;48.18;50.64;;
71034;Laerm;58847;52.378;4.740;2023-02-23T00:30:11;49.14;47.72;50.30;;
71034;Laerm;58847;52.378;4.740;2023-02-23T00:30:21;49.35;48.13;51.11;;
71034;Laerm;58847;52.378;4.740;2023-02-23T00:30:32;49.14;48.04;50.37;;
71034;Laerm;58847;52.378;4.740;2023-02-23T00:30:44;49.18;47.87;50.39;;
71034;Laerm;58847;52.378;4.740;2023-02-23T00:30:55;49.25;47.93;50.82;;
71034;Laerm;58847;52.378;4.740;2023-02-23T00:31:05;49.39;48.00;50.65;;
71034;Laerm;58847;52.378;4.740;2023-02-23T00:31:16;49.44;48.37;50.65;;
71034;Laerm;58847;52.378;4.740;2023-02-23T00:31:26;49.52;48.12;51.35;;
71034;Laerm;58847;52.378;4.740;2023-02-23T00:31:37;49.30;47.57;51.70;;
71034;Laerm;58847;52.378;4.740;2023-02-23T00:31:48;49.12;47.55;50.78;;
71034;Laerm;58847;52.378;4.740;2023-02-23T00:31:59;49.03;47.82;50.61;;
71034;Laerm;58847;52.378;4.740;2023-02-23T00:32:09;48.87;47.47;50.50;;
71034;Laerm;58847;52.378;4.740;2023-02-23T00:32:19;48.86;47.76;50.97;;
71034;Laerm;58847;52.378;4.740;2023-02-23T00:32:30;49.00;47.65;50.45;;
71034;Laerm;58847;52.378;4.740;2023-02-23T00:32:40;48.81;47.85;49.89;;
71034;Laerm;58847;52.378;4.740;2023-02-23T00:32:50;48.87;47.76;50.00;;
71034;Laerm;58847;52.378;4.740;2023-02-23T00:33:01;49.19;47.65;50.94;;
71034;Laerm;58847;52.378;4.740;2023-02-23T00:33:11;49.59;48.57;50.83;;
71034;Laerm;58847;52.378;4.740;2023-02-23T00:33:22;49.70;48.02;51.53;;
71034;Laerm;58847;52.378;4.740;2023-02-23T00:33:32;49.67;48.33;51.33;;
71034;Laerm;58847;52.378;4.740;2023-02-23T00:33:43;49.50;48.10;51.46;;
71034;Laerm;58847;52.378;4.740;2023-02-23T00:33:55;49.45;48.04;50.97;;
71034;Laerm;58847;52.378;4.740;2023-02-23T00:34:05;49.24;47.73;51.36;;
71034;Laerm;58847;52.378;4.740;2023-02-23T00:34:17;49.48;47.89;51.38;;
71034;Laerm;58847;52.378;4.740;2023-02-23T00:34:30;49.45;48.02;51.03;;
71034;Laerm;58847;52.378;4.740;2023-02-23T00:34:41;49.17;47.99;50.94;;
71034;Laerm;58847;52.378;4.740;2023-02-23T00:34:51;49.63;48.47;50.90;;
71034;Laerm;58847;52.378;4.740;2023-02-23T00:35:01;49.56;48.01;50.91;;
71034;Laerm;58847;52.378;4.740;2023-02-23T00:35:11;49.95;48.41;51.39;;
71034;Laerm;58847;52.378;4.740;2023-02-23T00:35:26;49.70;48.63;50.99;;
71034;Laerm;58847;52.378;4.740;2023-02-23T00:35:37;49.39;48.21;51.26;;
71034;Laerm;58847;52.378;4.740;2023-02-23T00:35:47;49.50;48.28;51.47;;
71034;Laerm;58847;52.378;4.740;2023-02-23T00:36:02;49.52;48.24;51.91;;
71034;Laerm;58847;52.378;4.740;2023-02-23T00:36:13;49.71;48.18;51.28;;
71034;Laerm;58847;52.378;4.740;2023-02-23T00:36:24;49.74;48.08;50.96;;
71034;Laerm;58847;52.378;4.740;2023-02-23T00:36:35;49.47;48.11;52.26;;
71034;Laerm;58847;52.378;4.740;2023-02-23T00:36:48;49.35;48.38;50.76;;
71034;Laerm;58847;52.378;4.740;2023-02-23T00:37:00;49.44;48.06;51.25;;
71034;Laerm;58847;52.378;4.740;2023-02-23T00:37:10;49.58;48.07;51.26;;
71034;Laerm;58847;52.378;4.740;2023-02-23T00:37:21;49.26;48.16;50.63;;
71034;Laerm;58847;52.378;4.740;2023-02-23T00:37:31;49.39;48.08;50.73;;
71034;Laerm;58847;52.378;4.740;2023-02-23T00:37:45;49.37;47.59;50.60;;
71034;Laerm;58847;52.378;4.740;2023-02-23T00:37:56;49.60;48.22;51.36;;
71034;Laerm;58847;52.378;4.740;2023-02-23T00:38:07;49.33;47.89;51.37;;
71034;Laerm;58847;52.378;4.740;2023-02-23T00:38:17;49.53;48.14;50.78;;
71034;Laerm;58847;52.378;4.740;2023-02-23T00:38:27;49.32;47.97;50.46;;
71034;Laerm;58847;52.378;4.740;2023-02-23T00:38:44;49.24;47.55;50.97;;
71034;Laerm;58847;52.378;4.740;2023-02-23T00:38:55;49.23;47.82;50.57;;
71034;Laerm;58847;52.378;4.740;2023-02-23T00:39:07;49.30;48.28;50.72;;
71034;Laerm;58847;52.378;4.740;2023-02-23T00:39:30;49.65;48.18;51.04;;
71034;Laerm;58847;52.378;4.740;2023-02-23T00:39:41;49.54;48.35;51.12;;
71034;Laerm;58847;52.378;4.740;2023-02-23T00:39:53;49.43;47.91;51.34;;
71034;Laerm;58847;52.378;4.740;2023-02-23T00:40:03;49.51;48.26;50.79;;
71034;Laerm;58847;52.378;4.740;2023-02-23T00:40:23;49.46;48.16;50.87;;
71034;Laerm;58847;52.378;4.740;2023-02-23T00:40:34;49.48;48.08;51.28;;
71034;Laerm;58847;52.378;4.740;2023-02-23T00:40:44;49.23;47.85;50.55;;
71034;Laerm;58847;52.378;4.740;2023-02-23T00:40:55;49.32;48.21;50.51;;
71034;Laerm;58847;52.378;4.740;2023-02-23T00:41:09;49.53;48.24;51.00;;
71034;Laerm;58847;52.378;4.740;2023-02-23T00:41:20;49.54;48.44;50.93;;
71034;Laerm;58847;52.378;4.740;2023-02-23T00:41:39;49.46;47.76;51.06;;
71034;Laerm;58847;52.378;4.740;2023-02-23T00:41:51;49.73;48.11;51.45;;
71034;Laerm;58847;52.378;4.740;2023-02-23T00:42:02;49.59;48.36;50.99;;
71034;Laerm;58847;52.378;4.740;2023-02-23T00:42:12;49.74;48.47;51.69;;
71034;Laerm;58847;52.378;4.740;2023-02-23T00:42:23;49.29;47.84;50.66;;
71034;Laerm;58847;52.378;4.740;2023-02-23T00:42:33;49.18;47.75;50.40;;
71034;Laerm;58847;52.378;4.740;2023-02-23T00:42:45;49.51;47.69;51.43;;
71034;Laerm;58847;52.378;4.740;2023-02-23T00:42:55;49.69;48.64;51.06;;
71034;Laerm;58847;52.378;4.740;2023-02-23T00:43:07;49.43;48.04;50.83;;
71034;Laerm;58847;52.378;4.740;2023-02-23T00:43:17;49.49;48.36;51.10;;
71034;Laerm;58847;52.378;4.740;2023-02-23T00:43:28;49.66;48.48;50.98;;
71034;Laerm;58847;52.378;4.740;2023-02-23T00:43:42;49.70;48.20;51.42;;
71034;Laerm;58847;52.378;4.740;2023-02-23T00:43:57;49.65;48.40;51.02;;
71034;Laerm;58847;52.378;4.740;2023-02-23T00:44:07;49.45;48.07;50.64;;
71034;Laerm;58847;52.378;4.740;2023-02-23T00:44:18;49.52;48.41;51.31;;
71034;Laerm;58847;52.378;4.740;2023-02-23T00:44:30;49.51;48.40;51.16;;
71034;Laerm;58847;52.378;4.740;2023-02-23T00:44:42;49.57;48.02;51.75;;
71034;Laerm;58847;52.378;4.740;2023-02-23T00:44:53;49.77;48.30;51.17;;
71034;Laerm;58847;52.378;4.740;2023-02-23T00:45:03;49.54;48.43;51.74;;
71034;Laerm;58847;52.378;4.740;2023-02-23T00:45:17;49.58;48.25;51.63;;
71034;Laerm;58847;52.378;4.740;2023-02-23T00:45:29;49.43;48.00;51.31;;
71034;Laerm;58847;52.378;4.740;2023-02-23T00:45:39;49.57;48.37;51.75;;
71034;Laerm;58847;52.378;4.740;2023-02-23T00:45:53;49.70;48.11;51.47;;
71034;Laerm;58847;52.378;4.740;2023-02-23T00:46:04;49.66;48.12;51.94;;
71034;Laerm;58847;52.378;4.740;2023-02-23T00:46:18;49.41;48.29;51.64;;
71034;Laerm;58847;52.378;4.740;2023-02-23T00:46:30;49.76;48.27;51.79;;
71034;Laerm;58847;52.378;4.740;2023-02-23T00:46:41;49.70;48.37;51.71;;
71034;Laerm;58847;52.378;4.740;2023-02-23T00:46:52;49.39;48.19;51.42;;
71034;Laerm;58847;52.378;4.740;2023-02-23T00:47:02;49.46;48.34;51.02;;
71034;Laerm;58847;52.378;4.740;2023-02-23T00:47:12;49.45;47.98;51.25;;
71034;Laerm;58847;52.378;4.740;2023-02-23T00:47:23;49.99;48.04;51.94;;
71034;Laerm;58847;52.378;4.740;2023-02-23T00:47:33;49.86;48.33;51.15;;
71034;Laerm;58847;52.378;4.740;2023-02-23T00:47:45;50.16;48.58;51.84;;
71034;Laerm;58847;52.378;4.740;2023-02-23T00:47:57;49.71;47.85;51.25;;
71034;Laerm;58847;52.378;4.740;2023-02-23T00:48:07;49.53;47.96;51.12;;
71034;Laerm;58847;52.378;4.740;2023-02-23T00:48:19;49.45;48.10;50.68;;
71034;Laerm;58847;52.378;4.740;2023-02-23T00:48:32;49.53;48.13;51.16;;
71034;Laerm;58847;52.378;4.740;2023-02-23T00:48:43;49.73;47.83;51.96;;
71034;Laerm;58847;52.378;4.740;2023-02-23T00:48:55;49.54;48.22;51.88;;
71034;Laerm;58847;52.378;4.740;2023-02-23T00:49:06;50.64;48.42;52.43;;
71034;Laerm;58847;52.378;4.740;2023-02-23T00:49:17;50.15;48.24;51.91;;
71034;Laerm;58847;52.378;4.740;2023-02-23T00:49:28;49.50;47.98;51.46;;
71034;Laerm;58847;52.378;4.740;2023-02-23T00:49:38;49.91;48.47;51.69;;
71034;Laerm;58847;52.378;4.740;2023-02-23T00:49:48;50.17;48.77;52.41;;
71034;Laerm;58847;52.378;4.740;2023-02-23T00:49:58;50.03;48.31;52.20;;
71034;Laerm;58847;52.378;4.740;2023-02-23T00:50:10;49.76;48.47;51.58;;
71034;Laerm;58847;52.378;4.740;2023-02-23T00:50:21;49.63;48.20;51.16;;
71034;Laerm;58847;52.378;4.740;2023-02-23T00:50:32;49.38;47.81;51.28;;
71034;Laerm;58847;52.378;4.740;2023-02-23T00:50:43;49.54;48.11;51.23;;
71034;Laerm;58847;52.378;4.740;2023-02-23T00:51:03;49.51;48.00;51.31;;
71034;Laerm;58847;52.378;4.740;2023-02-23T00:51:14;49.51;48.32;50.77;;
71034;Laerm;58847;52.378;4.740;2023-02-23T00:51:25;49.51;47.94;51.72;;
71034;Laerm;58847;52.378;4.740;2023-02-23T00:51:36;49.42;48.28;51.07;;
71034;Laerm;58847;52.378;4.740;2023-02-23T00:51:48;49.92;48.43;52.41;;
71034;Laerm;58847;52.378;4.740;2023-02-23T00:51:58;49.59;48.29;51.11;;
71034;Laerm;58847;52.378;4.740;2023-02-23T00:52:09;49.37;48.04;50.85;;
71034;Laerm;58847;52.378;4.740;2023-02-23T00:52:19;49.47;48.42;50.89;;
71034;Laerm;58847;52.378;4.740;2023-02-23T00:52:29;49.69;48.38;51.61;;
71034;Laerm;58847;52.378;4.740;2023-02-23T00:52:40;49.56;48.42;51.18;;
71034;Laerm;58847;52.378;4.740;2023-02-23T00:52:51;49.52;48.36;52.90;;
71034;Laerm;58847;52.378;4.740;2023-02-23T00:53:01;49.60;48.15;51.49;;
71034;Laerm;58847;52.378;4.740;2023-02-23T00:53:11;49.78;47.93;51.34;;
71034;Laerm;58847;52.378;4.740;2023-02-23T00:53:21;49.66;48.42;51.73;;
71034;Laerm;58847;52.378;4.740;2023-02-23T00:53:32;49.57;48.39;51.60;;
71034;Laerm;58847;52.378;4.740;2023-02-23T00:53:42;49.64;48.27;51.62;;
71034;Laerm;58847;52.378;4.740;2023-02-23T00:53:53;49.93;48.55;51.42;;
71034;Laerm;58847;52.378;4.740;2023-02-23T00:54:04;49.82;48.20;51.61;;
71034;Laerm;58847;52.378;4.740;2023-02-23T00:54:15;49.86;48.44;51.28;;
71034;Laerm;58847;52.378;4.740;2023-02-23T00:54:25;49.76;48.57;51.51;;
71034;Laerm;58847;52.378;4.740;2023-02-23T00:54:36;50.11;48.44;51.82;;
71034;Laerm;58847;52.378;4.740;2023-02-23T00:54:46;50.09;48.52;51.74;;
71034;Laerm;58847;52.378;4.740;2023-02-23T00:54:56;50.13;48.33;51.55;;
71034;Laerm;58847;52.378;4.740;2023-02-23T00:55:07;49.92;48.81;51.66;;
71034;Laerm;58847;52.378;4.740;2023-02-23T00:55:17;49.81;48.34;51.70;;
71034;Laerm;58847;52.378;4.740;2023-02-23T00:55:27;49.88;48.46;51.59;;
71034;Laerm;58847;52.378;4.740;2023-02-23T00:55:39;49.59;48.13;50.95;;
71034;Laerm;58847;52.378;4.740;2023-02-23T00:55:49;49.78;48.54;51.49;;
71034;Laerm;58847;52.378;4.740;2023-02-23T00:56:00;49.68;48.71;51.25;;
71034;Laerm;58847;52.378;4.740;2023-02-23T00:56:13;49.65;48.62;51.34;;
71034;Laerm;58847;52.378;4.740;2023-02-23T00:56:24;49.58;48.37;51.11;;
71034;Laerm;58847;52.378;4.740;2023-02-23T00:56:34;49.76;48.48;51.13;;
71034;Laerm;58847;52.378;4.740;2023-02-23T00:56:45;49.79;48.11;51.19;;
71034;Laerm;58847;52.378;4.740;2023-02-23T00:56:55;49.65;48.33;50.95;;
71034;Laerm;58847;52.378;4.740;2023-02-23T00:57:05;49.95;48.78;51.33;;
71034;Laerm;58847;52.378;4.740;2023-02-23T00:57:16;49.86;48.38;51.55;;
71034;Laerm;58847;52.378;4.740;2023-02-23T00:57:26;49.51;48.12;50.76;;
71034;Laerm;58847;52.378;4.740;2023-02-23T00:57:36;49.61;48.34;51.44;;
71034;Laerm;58847;52.378;4.740;2023-02-23T00:57:46;49.54;48.17;50.73;;
71034;Laerm;58847;52.378;4.740;2023-02-23T00:57:57;49.62;48.20;50.95;;
71034;Laerm;58847;52.378;4.740;2023-02-23T00:58:07;49.76;48.45;51.27;;
71034;Laerm;58847;52.378;4.740;2023-02-23T00:58:18;49.50;48.16;50.81;;
71034;Laerm;58847;52.378;4.740;2023-02-23T00:58:29;49.25;47.96;51.26;;
71034;Laerm;58847;52.378;4.740;2023-02-23T00:58:40;49.40;47.90;50.83;;
71034;Laerm;58847;52.378;4.740;2023-02-23T00:58:50;49.26;48.15;50.44;;
71034;Laerm;58847;52.378;4.740;2023-02-23T00:59:00;49.30;48.24;50.69;;
71034;Laerm;58847;52.378;4.740;2023-02-23T00:59:11;49.44;48.32;50.98;;
71034;Laerm;58847;52.378;4.740;2023-02-23T00:59:22;49.45;48.12;50.95;;
71034;Laerm;58847;52.378;4.740;2023-02-23T00:59:32;49.65;48.45;51.83;;
71034;Laerm;58847;52.378;4.740;2023-02-23T00:59:42;49.71;48.40;52.01;;
71034;Laerm;58847;52.378;4.740;2023-02-23T00:59:52;49.75;48.26;51.99;;
71034;Laerm;58847;52.378;4.740;2023-02-23T01:00:03;49.44;47.97;51.42;;
71034;Laerm;58847;52.378;4.740;2023-02-23T01:00:22;49.82;48.55;52.68;;
71034;Laerm;58847;52.378;4.740;2023-02-23T01:00:34;49.73;48.52;51.19;;
71034;Laerm;58847;52.378;4.740;2023-02-23T01:00:51;49.75;48.20;51.19;;
71034;Laerm;58847;52.378;4.740;2023-02-23T01:01:05;49.52;47.99;51.41;;
71034;Laerm;58847;52.378;4.740;2023-02-23T01:01:16;49.69;48.19;51.50;;
71034;Laerm;58847;52.378;4.740;2023-02-23T01:01:27;49.75;48.54;51.10;;
71034;Laerm;58847;52.378;4.740;2023-02-23T01:01:37;49.80;48.29;51.22;;
71034;Laerm;58847;52.378;4.740;2023-02-23T01:01:48;49.65;48.42;50.96;;
71034;Laerm;58847;52.378;4.740;2023-02-23T01:01:58;49.77;48.63;51.96;;
71034;Laerm;58847;52.378;4.740;2023-02-23T01:02:09;49.49;48.28;51.43;;
71034;Laerm;58847;52.378;4.740;2023-02-23T01:02:19;49.37;48.33;50.36;;
71034;Laerm;58847;52.378;4.740;2023-02-23T01:02:29;49.51;48.20;51.43;;
71034;Laerm;58847;52.378;4.740;2023-02-23T01:02:40;49.45;48.32;50.54;;
71034;Laerm;58847;52.378;4.740;2023-02-23T01:02:51;49.56;48.35;51.25;;
71034;Laerm;58847;52.378;4.740;2023-02-23T01:03:01;49.41;48.29;50.66;;
71034;Laerm;58847;52.378;4.740;2023-02-23T01:03:11;49.42;48.24;50.62;;
71034;Laerm;58847;52.378;4.740;2023-02-23T01:03:22;49.38;48.32;50.88;;
71034;Laerm;58847;52.378;4.740;2023-02-23T01:03:32;49.51;48.08;50.64;;
71034;Laerm;58847;52.378;4.740;2023-02-23T01:03:43;49.51;48.23;51.26;;
71034;Laerm;58847;52.378;4.740;2023-02-23T01:03:56;49.76;48.47;50.91;;
71034;Laerm;58847;52.378;4.740;2023-02-23T01:04:06;49.96;48.87;51.78;;